sensor_id;sensor_type;location;lat;lon;timestamp;P1;durP1;ratioP1;P2;durP2;ratioP2
78774;SDS011;68119;43.398;3.676;2023-04-24T00:00:45;7.55;;;2.47;;
78774;SDS011;68119;43.398;3.676;2023-04-24T00:03:14;5.00;;;2.63;;
78774;SDS011;68119;43.398;3.676;2023-04-24T00:05:43;4.68;;;2.50;;
78774;SDS011;68119;43.398;3.676;2023-04-24T00:08:10;4.90;;;1.90;;
78774;SDS011;68119;43.398;3.676;2023-04-24T00:10:36;6.10;;;2.35;;
78774;SDS011;68119;43.398;3.676;2023-04-24T00:13:02;7.43;;;2.20;;
78774;SDS011;68119;43.398;3.676;2023-04-24T00:15:31;5.85;;;2.53;;
78774;SDS011;68119;43.398;3.676;2023-04-24T00:17:58;7.07;;;2.55;;
78774;SDS011;68119;43.398;3.676;2023-04-24T00:20:26;6.07;;;2.00;;
78774;SDS011;68119;43.398;3.676;2023-04-24T00:22:54;7.80;;;2.22;;
78774;SDS011;68119;43.398;3.676;2023-04-24T00:25:20;9.35;;;2.90;;
78774;SDS011;68119;43.398;3.676;2023-04-24T00:27:46;7.75;;;2.45;;
78774;SDS011;68119;43.398;3.676;2023-04-24T00:30:13;7.47;;;2.80;;
78774;SDS011;68119;43.398;3.676;2023-04-24T00:32:39;6.10;;;2.53;;
78774;SDS011;68119;43.398;3.676;2023-04-24T00:35:05;7.20;;;2.33;;
78774;SDS011;68119;43.398;3.676;2023-04-24T00:37:32;6.80;;;2.33;;
78774;SDS011;68119;43.398;3.676;2023-04-24T00:40:00;10.35;;;2.33;;
78774;SDS011;68119;43.398;3.676;2023-04-24T00:42:30;8.25;;;2.60;;
78774;SDS011;68119;43.398;3.676;2023-04-24T00:44:59;6.13;;;2.50;;
78774;SDS011;68119;43.398;3.676;2023-04-24T00:47:26;6.75;;;2.17;;
78774;SDS011;68119;43.398;3.676;2023-04-24T00:49:52;6.95;;;2.15;;
78774;SDS011;68119;43.398;3.676;2023-04-24T00:52:21;6.63;;;2.20;;
78774;SDS011;68119;43.398;3.676;2023-04-24T00:54:52;9.80;;;2.40;;
78774;SDS011;68119;43.398;3.676;2023-04-24T00:57:18;7.03;;;2.65;;
78774;SDS011;68119;43.398;3.676;2023-04-24T00:59:44;6.28;;;2.35;;
78774;SDS011;68119;43.398;3.676;2023-04-24T01:02:11;7.55;;;2.40;;
78774;SDS011;68119;43.398;3.676;2023-04-24T01:04:37;6.63;;;2.50;;
78774;SDS011;68119;43.398;3.676;2023-04-24T01:07:06;7.50;;;2.20;;
78774;SDS011;68119;43.398;3.676;2023-04-24T01:09:36;10.65;;;2.38;;
78774;SDS011;68119;43.398;3.676;2023-04-24T01:12:05;6.75;;;2.67;;
78774;SDS011;68119;43.398;3.676;2023-04-24T01:14:34;7.03;;;2.47;;
78774;SDS011;68119;43.398;3.676;2023-04-24T01:17:03;6.18;;;2.17;;
78774;SDS011;68119;43.398;3.676;2023-04-24T01:19:31;7.45;;;2.45;;
78774;SDS011;68119;43.398;3.676;2023-04-24T01:21:58;6.68;;;2.50;;
78774;SDS011;68119;43.398;3.676;2023-04-24T01:24:24;6.78;;;2.28;;
78774;SDS011;68119;43.398;3.676;2023-04-24T01:26:56;6.65;;;2.60;;
78774;SDS011;68119;43.398;3.676;2023-04-24T01:29:22;12.00;;;2.60;;
78774;SDS011;68119;43.398;3.676;2023-04-24T01:31:49;6.20;;;2.40;;
78774;SDS011;68119;43.398;3.676;2023-04-24T01:34:15;5.85;;;2.20;;
78774;SDS011;68119;43.398;3.676;2023-04-24T01:36:45;4.88;;;2.22;;
78774;SDS011;68119;43.398;3.676;2023-04-24T01:39:12;5.10;;;2.50;;
78774;SDS011;68119;43.398;3.676;2023-04-24T01:41:38;6.40;;;2.50;;
78774;SDS011;68119;43.398;3.676;2023-04-24T01:44:04;9.48;;;2.65;;
78774;SDS011;68119;43.398;3.676;2023-04-24T01:46:30;5.88;;;2.22;;
78774;SDS011;68119;43.398;3.676;2023-04-24T01:48:57;8.55;;;2.28;;
78774;SDS011;68119;43.398;3.676;2023-04-24T01:51:25;6.82;;;2.53;;
78774;SDS011;68119;43.398;3.676;2023-04-24T01:53:52;6.22;;;2.65;;
78774;SDS011;68119;43.398;3.676;2023-04-24T01:56:19;6.18;;;2.67;;
78774;SDS011;68119;43.398;3.676;2023-04-24T01:58:45;8.70;;;2.40;;
78774;SDS011;68119;43.398;3.676;2023-04-24T02:01:17;5.50;;;2.30;;
78774;SDS011;68119;43.398;3.676;2023-04-24T02:03:44;7.57;;;2.83;;
78774;SDS011;68119;43.398;3.676;2023-04-24T02:06:10;5.38;;;2.47;;
78774;SDS011;68119;43.398;3.676;2023-04-24T02:08:39;5.65;;;2.63;;
78774;SDS011;68119;43.398;3.676;2023-04-24T02:11:08;6.40;;;2.60;;
78774;SDS011;68119;43.398;3.676;2023-04-24T02:13:34;6.00;;;2.65;;
78774;SDS011;68119;43.398;3.676;2023-04-24T02:16:01;5.68;;;2.35;;
78774;SDS011;68119;43.398;3.676;2023-04-24T02:18:27;7.40;;;2.47;;
78774;SDS011;68119;43.398;3.676;2023-04-24T02:20:55;6.15;;;2.58;;
78774;SDS011;68119;43.398;3.676;2023-04-24T02:23:24;4.45;;;2.67;;
78774;SDS011;68119;43.398;3.676;2023-04-24T02:25:50;6.22;;;2.15;;
78774;SDS011;68119;43.398;3.676;2023-04-24T02:28:18;5.38;;;2.38;;
78774;SDS011;68119;43.398;3.676;2023-04-24T02:30:44;7.18;;;2.63;;
78774;SDS011;68119;43.398;3.676;2023-04-24T02:33:11;4.72;;;2.40;;
78774;SDS011;68119;43.398;3.676;2023-04-24T02:35:40;6.13;;;2.33;;
78774;SDS011;68119;43.398;3.676;2023-04-24T02:38:06;7.68;;;2.50;;
78774;SDS011;68119;43.398;3.676;2023-04-24T02:40:32;6.38;;;2.38;;
78774;SDS011;68119;43.398;3.676;2023-04-24T02:42:58;7.75;;;2.55;;
78774;SDS011;68119;43.398;3.676;2023-04-24T02:45:24;5.97;;;2.42;;
78774;SDS011;68119;43.398;3.676;2023-04-24T02:47:53;10.55;;;2.53;;
78774;SDS011;68119;43.398;3.676;2023-04-24T02:50:20;8.90;;;2.50;;
78774;SDS011;68119;43.398;3.676;2023-04-24T02:52:46;5.57;;;2.30;;
78774;SDS011;68119;43.398;3.676;2023-04-24T02:55:12;7.70;;;2.47;;
78774;SDS011;68119;43.398;3.676;2023-04-24T02:57:38;9.68;;;2.78;;
78774;SDS011;68119;43.398;3.676;2023-04-24T03:00:08;5.07;;;2.53;;
78774;SDS011;68119;43.398;3.676;2023-04-24T03:02:37;7.65;;;2.70;;
78774;SDS011;68119;43.398;3.676;2023-04-24T03:05:06;7.43;;;2.70;;
78774;SDS011;68119;43.398;3.676;2023-04-24T03:07:36;4.30;;;2.20;;
78774;SDS011;68119;43.398;3.676;2023-04-24T03:10:05;9.43;;;2.70;;
78774;SDS011;68119;43.398;3.676;2023-04-24T03:12:32;7.47;;;2.90;;
78774;SDS011;68119;43.398;3.676;2023-04-24T03:15:00;9.95;;;2.70;;
78774;SDS011;68119;43.398;3.676;2023-04-24T03:17:29;14.30;;;3.05;;
78774;SDS011;68119;43.398;3.676;2023-04-24T03:19:55;11.82;;;2.80;;
78774;SDS011;68119;43.398;3.676;2023-04-24T03:22:21;9.30;;;3.13;;
78774;SDS011;68119;43.398;3.676;2023-04-24T03:24:50;11.27;;;3.05;;
78774;SDS011;68119;43.398;3.676;2023-04-24T03:27:16;9.93;;;3.08;;
78774;SDS011;68119;43.398;3.676;2023-04-24T03:29:42;10.95;;;2.83;;
78774;SDS011;68119;43.398;3.676;2023-04-24T03:32:08;11.90;;;2.90;;
78774;SDS011;68119;43.398;3.676;2023-04-24T03:34:35;9.70;;;3.10;;
78774;SDS011;68119;43.398;3.676;2023-04-24T03:37:01;11.00;;;2.97;;
78774;SDS011;68119;43.398;3.676;2023-04-24T03:39:27;9.25;;;2.88;;
78774;SDS011;68119;43.398;3.676;2023-04-24T03:41:53;8.13;;;2.83;;
78774;SDS011;68119;43.398;3.676;2023-04-24T03:44:19;7.25;;;2.85;;
78774;SDS011;68119;43.398;3.676;2023-04-24T03:46:45;9.63;;;3.00;;
78774;SDS011;68119;43.398;3.676;2023-04-24T03:49:12;9.80;;;2.70;;
78774;SDS011;68119;43.398;3.676;2023-04-24T03:51:38;10.35;;;2.95;;
78774;SDS011;68119;43.398;3.676;2023-04-24T03:54:04;6.97;;;2.63;;
78774;SDS011;68119;43.398;3.676;2023-04-24T03:56:33;8.00;;;2.85;;
78774;SDS011;68119;43.398;3.676;2023-04-24T03:59:01;9.82;;;2.90;;
78774;SDS011;68119;43.398;3.676;2023-04-24T04:01:30;10.30;;;2.88;;
78774;SDS011;68119;43.398;3.676;2023-04-24T04:03:56;8.95;;;2.90;;
78774;SDS011;68119;43.398;3.676;2023-04-24T04:06:23;7.57;;;2.70;;
78774;SDS011;68119;43.398;3.676;2023-04-24T04:08:49;9.20;;;3.08;;
78774;SDS011;68119;43.398;3.676;2023-04-24T04:11:17;9.63;;;2.88;;
78774;SDS011;68119;43.398;3.676;2023-04-24T04:13:43;11.40;;;3.20;;
78774;SDS011;68119;43.398;3.676;2023-04-24T04:16:10;14.82;;;3.00;;
78774;SDS011;68119;43.398;3.676;2023-04-24T04:18:36;11.40;;;2.85;;
78774;SDS011;68119;43.398;3.676;2023-04-24T04:21:05;10.38;;;2.80;;
78774;SDS011;68119;43.398;3.676;2023-04-24T04:23:31;8.15;;;2.67;;
78774;SDS011;68119;43.398;3.676;2023-04-24T04:25:57;10.70;;;2.97;;
78774;SDS011;68119;43.398;3.676;2023-04-24T04:28:24;10.10;;;3.00;;
78774;SDS011;68119;43.398;3.676;2023-04-24T04:30:50;13.50;;;2.97;;
78774;SDS011;68119;43.398;3.676;2023-04-24T04:33:28;9.82;;;3.30;;
78774;SDS011;68119;43.398;3.676;2023-04-24T04:35:56;11.98;;;2.85;;
78774;SDS011;68119;43.398;3.676;2023-04-24T04:38:22;11.13;;;3.80;;
78774;SDS011;68119;43.398;3.676;2023-04-24T04:40:48;9.48;;;3.20;;
78774;SDS011;68119;43.398;3.676;2023-04-24T04:43:14;10.45;;;2.80;;
78774;SDS011;68119;43.398;3.676;2023-04-24T04:45:43;12.18;;;3.20;;
78774;SDS011;68119;43.398;3.676;2023-04-24T04:48:10;10.27;;;3.35;;
78774;SDS011;68119;43.398;3.676;2023-04-24T04:50:42;12.73;;;3.13;;
78774;SDS011;68119;43.398;3.676;2023-04-24T04:53:08;11.75;;;3.15;;
78774;SDS011;68119;43.398;3.676;2023-04-24T04:55:37;11.77;;;3.22;;
78774;SDS011;68119;43.398;3.676;2023-04-24T04:58:05;8.00;;;3.00;;
78774;SDS011;68119;43.398;3.676;2023-04-24T05:00:32;11.30;;;3.20;;
78774;SDS011;68119;43.398;3.676;2023-04-24T05:03:01;9.57;;;3.10;;
78774;SDS011;68119;43.398;3.676;2023-04-24T05:05:30;9.50;;;3.05;;
78774;SDS011;68119;43.398;3.676;2023-04-24T05:07:58;8.88;;;2.88;;
78774;SDS011;68119;43.398;3.676;2023-04-24T05:10:28;6.78;;;2.70;;
78774;SDS011;68119;43.398;3.676;2023-04-24T05:12:56;11.77;;;3.35;;
78774;SDS011;68119;43.398;3.676;2023-04-24T05:15:22;9.82;;;3.10;;
78774;SDS011;68119;43.398;3.676;2023-04-24T05:17:48;13.18;;;3.45;;
78774;SDS011;68119;43.398;3.676;2023-04-24T05:20:15;10.45;;;3.28;;
78774;SDS011;68119;43.398;3.676;2023-04-24T05:22:41;9.57;;;3.25;;
78774;SDS011;68119;43.398;3.676;2023-04-24T05:25:08;9.80;;;3.53;;
78774;SDS011;68119;43.398;3.676;2023-04-24T05:27:34;7.57;;;2.83;;
78774;SDS011;68119;43.398;3.676;2023-04-24T05:30:00;9.38;;;2.90;;
78774;SDS011;68119;43.398;3.676;2023-04-24T05:32:29;10.85;;;3.00;;
78774;SDS011;68119;43.398;3.676;2023-04-24T05:34:57;10.90;;;3.10;;
78774;SDS011;68119;43.398;3.676;2023-04-24T05:37:26;11.20;;;3.00;;
78774;SDS011;68119;43.398;3.676;2023-04-24T05:39:52;6.95;;;2.60;;
78774;SDS011;68119;43.398;3.676;2023-04-24T05:42:21;11.60;;;3.05;;
78774;SDS011;68119;43.398;3.676;2023-04-24T05:44:47;12.25;;;3.58;;
78774;SDS011;68119;43.398;3.676;2023-04-24T05:47:16;14.20;;;3.70;;
78774;SDS011;68119;43.398;3.676;2023-04-24T05:49:42;10.93;;;3.63;;
78774;SDS011;68119;43.398;3.676;2023-04-24T05:52:10;11.35;;;3.47;;
78774;SDS011;68119;43.398;3.676;2023-04-24T05:54:36;10.98;;;3.45;;
78774;SDS011;68119;43.398;3.676;2023-04-24T05:57:03;10.38;;;3.30;;
78774;SDS011;68119;43.398;3.676;2023-04-24T05:59:33;16.38;;;3.67;;
78774;SDS011;68119;43.398;3.676;2023-04-24T06:02:01;11.95;;;3.38;;
78774;SDS011;68119;43.398;3.676;2023-04-24T06:04:33;12.30;;;3.67;;
78774;SDS011;68119;43.398;3.676;2023-04-24T06:07:01;12.95;;;4.03;;
78774;SDS011;68119;43.398;3.676;2023-04-24T06:09:38;10.60;;;3.70;;
78774;SDS011;68119;43.398;3.676;2023-04-24T06:12:04;11.18;;;3.67;;
78774;SDS011;68119;43.398;3.676;2023-04-24T06:14:33;13.25;;;3.78;;
78774;SDS011;68119;43.398;3.676;2023-04-24T06:17:02;8.90;;;3.10;;
78774;SDS011;68119;43.398;3.676;2023-04-24T06:19:29;11.88;;;3.67;;
78774;SDS011;68119;43.398;3.676;2023-04-24T06:21:55;9.73;;;3.28;;
78774;SDS011;68119;43.398;3.676;2023-04-24T06:24:21;20.75;;;11.43;;
78774;SDS011;68119;43.398;3.676;2023-04-24T06:26:47;12.88;;;6.82;;
78774;SDS011;68119;43.398;3.676;2023-04-24T06:29:19;14.35;;;4.90;;
78774;SDS011;68119;43.398;3.676;2023-04-24T06:31:45;11.40;;;4.10;;
78774;SDS011;68119;43.398;3.676;2023-04-24T06:34:11;12.55;;;4.07;;
78774;SDS011;68119;43.398;3.676;2023-04-24T06:36:40;14.65;;;3.70;;
78774;SDS011;68119;43.398;3.676;2023-04-24T06:39:09;10.02;;;3.53;;
78774;SDS011;68119;43.398;3.676;2023-04-24T06:41:40;10.50;;;3.20;;
78774;SDS011;68119;43.398;3.676;2023-04-24T06:44:06;9.80;;;3.28;;
78774;SDS011;68119;43.398;3.676;2023-04-24T06:46:35;12.10;;;3.13;;
78774;SDS011;68119;43.398;3.676;2023-04-24T06:49:01;10.57;;;3.10;;
78774;SDS011;68119;43.398;3.676;2023-04-24T06:51:27;10.02;;;2.70;;
78774;SDS011;68119;43.398;3.676;2023-04-24T06:53:58;16.38;;;3.50;;
78774;SDS011;68119;43.398;3.676;2023-04-24T06:56:26;8.75;;;2.72;;
78774;SDS011;68119;43.398;3.676;2023-04-24T06:58:53;8.10;;;2.55;;
78774;SDS011;68119;43.398;3.676;2023-04-24T07:01:20;13.05;;;3.17;;
78774;SDS011;68119;43.398;3.676;2023-04-24T07:03:47;10.18;;;2.80;;
78774;SDS011;68119;43.398;3.676;2023-04-24T07:06:16;10.10;;;2.83;;
78774;SDS011;68119;43.398;3.676;2023-04-24T07:08:43;9.25;;;2.83;;
78774;SDS011;68119;43.398;3.676;2023-04-24T07:11:15;9.32;;;2.53;;
78774;SDS011;68119;43.398;3.676;2023-04-24T07:13:41;7.50;;;2.58;;
78774;SDS011;68119;43.398;3.676;2023-04-24T07:16:12;10.60;;;2.95;;
78774;SDS011;68119;43.398;3.676;2023-04-24T07:18:41;8.40;;;2.78;;
78774;SDS011;68119;43.398;3.676;2023-04-24T07:21:07;7.93;;;2.65;;
78774;SDS011;68119;43.398;3.676;2023-04-24T07:23:37;9.98;;;3.13;;
78774;SDS011;68119;43.398;3.676;2023-04-24T07:26:03;10.05;;;2.75;;
78774;SDS011;68119;43.398;3.676;2023-04-24T07:28:29;11.82;;;3.08;;
78774;SDS011;68119;43.398;3.676;2023-04-24T07:30:58;10.23;;;3.17;;
78774;SDS011;68119;43.398;3.676;2023-04-24T07:33:27;8.80;;;3.13;;
78774;SDS011;68119;43.398;3.676;2023-04-24T07:35:56;9.77;;;3.00;;
78774;SDS011;68119;43.398;3.676;2023-04-24T07:38:22;8.77;;;2.90;;
78774;SDS011;68119;43.398;3.676;2023-04-24T07:43:20;11.02;;;2.78;;
78774;SDS011;68119;43.398;3.676;2023-04-24T07:45:49;11.73;;;3.15;;
78774;SDS011;68119;43.398;3.676;2023-04-24T07:48:21;8.48;;;3.00;;
78774;SDS011;68119;43.398;3.676;2023-04-24T07:50:53;10.55;;;3.35;;
78774;SDS011;68119;43.398;3.676;2023-04-24T07:53:20;9.18;;;2.75;;
78774;SDS011;68119;43.398;3.676;2023-04-24T07:55:46;11.45;;;3.67;;
78774;SDS011;68119;43.398;3.676;2023-04-24T07:58:14;11.48;;;3.30;;
78774;SDS011;68119;43.398;3.676;2023-04-24T08:00:40;11.90;;;2.90;;
78774;SDS011;68119;43.398;3.676;2023-04-24T08:03:09;12.70;;;3.10;;
78774;SDS011;68119;43.398;3.676;2023-04-24T08:05:37;9.43;;;2.95;;
78774;SDS011;68119;43.398;3.676;2023-04-24T08:08:03;8.20;;;3.00;;
78774;SDS011;68119;43.398;3.676;2023-04-24T08:10:29;12.10;;;3.25;;
78774;SDS011;68119;43.398;3.676;2023-04-24T08:12:55;7.20;;;3.10;;
78774;SDS011;68119;43.398;3.676;2023-04-24T08:15:24;8.75;;;2.70;;
78774;SDS011;68119;43.398;3.676;2023-04-24T08:17:50;7.55;;;2.72;;
78774;SDS011;68119;43.398;3.676;2023-04-24T08:20:20;9.88;;;2.75;;
78774;SDS011;68119;43.398;3.676;2023-04-24T08:22:46;12.57;;;3.20;;
78774;SDS011;68119;43.398;3.676;2023-04-24T08:25:16;11.00;;;2.97;;
78774;SDS011;68119;43.398;3.676;2023-04-24T08:27:46;7.80;;;2.93;;
78774;SDS011;68119;43.398;3.676;2023-04-24T08:30:12;10.60;;;3.17;;
78774;SDS011;68119;43.398;3.676;2023-04-24T08:32:41;10.77;;;2.80;;
78774;SDS011;68119;43.398;3.676;2023-04-24T08:35:08;9.55;;;2.95;;
78774;SDS011;68119;43.398;3.676;2023-04-24T08:37:35;10.05;;;3.20;;
78774;SDS011;68119;43.398;3.676;2023-04-24T08:40:02;10.38;;;3.22;;
78774;SDS011;68119;43.398;3.676;2023-04-24T08:42:32;7.07;;;2.90;;
78774;SDS011;68119;43.398;3.676;2023-04-24T08:44:59;12.20;;;3.05;;
78774;SDS011;68119;43.398;3.676;2023-04-24T08:47:28;9.25;;;2.97;;
78774;SDS011;68119;43.398;3.676;2023-04-24T08:49:55;6.85;;;2.42;;
78774;SDS011;68119;43.398;3.676;2023-04-24T08:52:21;5.88;;;2.60;;
78774;SDS011;68119;43.398;3.676;2023-04-24T08:54:47;6.15;;;2.25;;
78774;SDS011;68119;43.398;3.676;2023-04-24T08:57:14;6.63;;;2.47;;
78774;SDS011;68119;43.398;3.676;2023-04-24T08:59:40;8.15;;;2.60;;
78774;SDS011;68119;43.398;3.676;2023-04-24T09:02:08;8.15;;;3.10;;
78774;SDS011;68119;43.398;3.676;2023-04-24T09:04:38;7.88;;;2.83;;
78774;SDS011;68119;43.398;3.676;2023-04-24T09:07:12;8.38;;;2.55;;
78774;SDS011;68119;43.398;3.676;2023-04-24T09:09:40;8.07;;;2.80;;
78774;SDS011;68119;43.398;3.676;2023-04-24T09:12:10;7.70;;;2.75;;
78774;SDS011;68119;43.398;3.676;2023-04-24T09:14:39;6.65;;;2.33;;
78774;SDS011;68119;43.398;3.676;2023-04-24T09:17:09;6.25;;;2.03;;
78774;SDS011;68119;43.398;3.676;2023-04-24T09:19:36;6.63;;;2.03;;
78774;SDS011;68119;43.398;3.676;2023-04-24T09:22:07;3.90;;;1.60;;
78774;SDS011;68119;43.398;3.676;2023-04-24T09:24:34;8.68;;;1.92;;
78774;SDS011;68119;43.398;3.676;2023-04-24T09:27:00;2.60;;;1.25;;
78774;SDS011;68119;43.398;3.676;2023-04-24T09:29:31;2.28;;;1.13;;
78774;SDS011;68119;43.398;3.676;2023-04-24T09:31:58;3.58;;;1.30;;
78774;SDS011;68119;43.398;3.676;2023-04-24T09:34:35;1.35;;;1.20;;
78774;SDS011;68119;43.398;3.676;2023-04-24T09:37:01;2.38;;;1.15;;
78774;SDS011;68119;43.398;3.676;2023-04-24T09:39:27;2.80;;;1.10;;
78774;SDS011;68119;43.398;3.676;2023-04-24T09:41:54;2.10;;;1.25;;
78774;SDS011;68119;43.398;3.676;2023-04-24T09:44:29;2.90;;;1.50;;
78774;SDS011;68119;43.398;3.676;2023-04-24T09:46:58;1.90;;;1.10;;
78774;SDS011;68119;43.398;3.676;2023-04-24T09:49:31;3.33;;;1.30;;
78774;SDS011;68119;43.398;3.676;2023-04-24T09:52:10;2.97;;;0.95;;
78774;SDS011;68119;43.398;3.676;2023-04-24T09:54:37;1.48;;;0.70;;
78774;SDS011;68119;43.398;3.676;2023-04-24T09:57:04;2.75;;;1.15;;
78774;SDS011;68119;43.398;3.676;2023-04-24T09:59:30;1.90;;;1.13;;
78774;SDS011;68119;43.398;3.676;2023-04-24T10:01:59;1.20;;;1.00;;
78774;SDS011;68119;43.398;3.676;2023-04-24T10:04:28;2.55;;;1.05;;
78774;SDS011;68119;43.398;3.676;2023-04-24T10:06:58;2.28;;;0.82;;
78774;SDS011;68119;43.398;3.676;2023-04-24T10:09:26;1.77;;;1.05;;
78774;SDS011;68119;43.398;3.676;2023-04-24T10:11:53;2.15;;;1.02;;
78774;SDS011;68119;43.398;3.676;2023-04-24T10:14:20;3.35;;;0.90;;
78774;SDS011;68119;43.398;3.676;2023-04-24T10:16:51;1.90;;;1.17;;
78774;SDS011;68119;43.398;3.676;2023-04-24T10:19:18;3.28;;;1.20;;
78774;SDS011;68119;43.398;3.676;2023-04-24T10:21:45;2.47;;;1.30;;
78774;SDS011;68119;43.398;3.676;2023-04-24T10:24:18;2.95;;;1.05;;
78774;SDS011;68119;43.398;3.676;2023-04-24T10:26:46;2.28;;;1.10;;
78774;SDS011;68119;43.398;3.676;2023-04-24T10:29:20;1.75;;;1.10;;
78774;SDS011;68119;43.398;3.676;2023-04-24T10:31:49;3.80;;;1.13;;
78774;SDS011;68119;43.398;3.676;2023-04-24T10:34:18;3.75;;;1.05;;
78774;SDS011;68119;43.398;3.676;2023-04-24T10:36:51;4.18;;;1.35;;
78774;SDS011;68119;43.398;3.676;2023-04-24T10:39:21;5.18;;;1.38;;
78774;SDS011;68119;43.398;3.676;2023-04-24T10:41:52;4.10;;;1.40;;
78774;SDS011;68119;43.398;3.676;2023-04-24T10:44:21;1.95;;;1.10;;
78774;SDS011;68119;43.398;3.676;2023-04-24T10:46:54;2.80;;;0.95;;
78774;SDS011;68119;43.398;3.676;2023-04-24T10:49:28;3.25;;;1.40;;
78774;SDS011;68119;43.398;3.676;2023-04-24T10:51:54;2.17;;;1.08;;
78774;SDS011;68119;43.398;3.676;2023-04-24T10:54:27;1.40;;;0.90;;
78774;SDS011;68119;43.398;3.676;2023-04-24T10:59:40;1.92;;;0.93;;
78774;SDS011;68119;43.398;3.676;2023-04-24T11:02:07;1.38;;;1.15;;
78774;SDS011;68119;43.398;3.676;2023-04-24T11:04:34;2.20;;;1.10;;
78774;SDS011;68119;43.398;3.676;2023-04-24T11:07:06;4.93;;;1.35;;
78774;SDS011;68119;43.398;3.676;2023-04-24T11:09:32;2.15;;;1.20;;
78774;SDS011;68119;43.398;3.676;2023-04-24T11:12:06;2.97;;;1.15;;
78774;SDS011;68119;43.398;3.676;2023-04-24T11:17:34;2.28;;;1.17;;
78774;SDS011;68119;43.398;3.676;2023-04-24T11:22:34;1.85;;;1.30;;
78774;SDS011;68119;43.398;3.676;2023-04-24T11:25:01;2.40;;;1.40;;
78774;SDS011;68119;43.398;3.676;2023-04-24T11:27:29;2.13;;;1.13;;
78774;SDS011;68119;43.398;3.676;2023-04-24T11:34:59;2.47;;;1.13;;
78774;SDS011;68119;43.398;3.676;2023-04-24T11:37:33;5.25;;;1.50;;
78774;SDS011;68119;43.398;3.676;2023-04-24T11:40:03;3.65;;;1.40;;
78774;SDS011;68119;43.398;3.676;2023-04-24T11:42:39;1.25;;;0.80;;
78774;SDS011;68119;43.398;3.676;2023-04-24T11:47:38;3.05;;;1.30;;
78774;SDS011;68119;43.398;3.676;2023-04-24T11:50:06;3.70;;;1.30;;
78774;SDS011;68119;43.398;3.676;2023-04-24T11:52:33;2.95;;;1.30;;
78774;SDS011;68119;43.398;3.676;2023-04-24T11:54:59;2.80;;;1.02;;
78774;SDS011;68119;43.398;3.676;2023-04-24T11:57:29;3.00;;;1.20;;
78774;SDS011;68119;43.398;3.676;2023-04-24T12:00:05;1.45;;;1.00;;
78774;SDS011;68119;43.398;3.676;2023-04-24T12:02:33;3.35;;;1.42;;
78774;SDS011;68119;43.398;3.676;2023-04-24T12:04:59;2.97;;;1.15;;
78774;SDS011;68119;43.398;3.676;2023-04-24T12:07:25;1.50;;;0.80;;
78774;SDS011;68119;43.398;3.676;2023-04-24T12:09:56;1.80;;;1.13;;
78774;SDS011;68119;43.398;3.676;2023-04-24T12:12:24;4.93;;;1.20;;
78774;SDS011;68119;43.398;3.676;2023-04-24T12:14:55;1.30;;;1.05;;
78774;SDS011;68119;43.398;3.676;2023-04-24T12:17:25;2.15;;;1.10;;
78774;SDS011;68119;43.398;3.676;2023-04-24T12:19:52;4.45;;;1.42;;
78774;SDS011;68119;43.398;3.676;2023-04-24T12:22:18;2.42;;;1.27;;
78774;SDS011;68119;43.398;3.676;2023-04-24T12:25:01;4.72;;;1.52;;
78774;SDS011;68119;43.398;3.676;2023-04-24T12:27:31;2.72;;;1.30;;
78774;SDS011;68119;43.398;3.676;2023-04-24T12:30:02;3.25;;;1.40;;
78774;SDS011;68119;43.398;3.676;2023-04-24T12:32:32;2.38;;;1.33;;
78774;SDS011;68119;43.398;3.676;2023-04-24T12:35:04;2.50;;;1.27;;
78774;SDS011;68119;43.398;3.676;2023-04-24T12:37:32;2.65;;;1.48;;
78774;SDS011;68119;43.398;3.676;2023-04-24T12:40:17;2.95;;;1.50;;
78774;SDS011;68119;43.398;3.676;2023-04-24T12:42:45;3.72;;;1.45;;
78774;SDS011;68119;43.398;3.676;2023-04-24T12:45:11;4.00;;;1.50;;
78774;SDS011;68119;43.398;3.676;2023-04-24T12:47:38;4.13;;;1.40;;
78774;SDS011;68119;43.398;3.676;2023-04-24T12:50:12;2.65;;;1.33;;
78774;SDS011;68119;43.398;3.676;2023-04-24T12:52:43;3.38;;;1.58;;
78774;SDS011;68119;43.398;3.676;2023-04-24T12:55:09;3.08;;;1.50;;
78774;SDS011;68119;43.398;3.676;2023-04-24T12:57:38;3.60;;;1.63;;
78774;SDS011;68119;43.398;3.676;2023-04-24T13:00:10;4.15;;;1.48;;
78774;SDS011;68119;43.398;3.676;2023-04-24T13:02:39;4.30;;;1.45;;
78774;SDS011;68119;43.398;3.676;2023-04-24T13:05:05;3.53;;;1.42;;
78774;SDS011;68119;43.398;3.676;2023-04-24T13:07:32;4.80;;;1.55;;
78774;SDS011;68119;43.398;3.676;2023-04-24T13:10:03;5.15;;;1.80;;
78774;SDS011;68119;43.398;3.676;2023-04-24T13:12:29;3.50;;;1.40;;
78774;SDS011;68119;43.398;3.676;2023-04-24T13:14:55;6.32;;;1.60;;
78774;SDS011;68119;43.398;3.676;2023-04-24T13:17:22;1.77;;;1.45;;
78774;SDS011;68119;43.398;3.676;2023-04-24T13:19:48;4.05;;;1.73;;
78774;SDS011;68119;43.398;3.676;2023-04-24T13:22:15;5.32;;;1.80;;
78774;SDS011;68119;43.398;3.676;2023-04-24T13:24:46;6.78;;;2.08;;
78774;SDS011;68119;43.398;3.676;2023-04-24T13:27:15;3.85;;;1.65;;
78774;SDS011;68119;43.398;3.676;2023-04-24T13:29:42;4.32;;;1.40;;
78774;SDS011;68119;43.398;3.676;2023-04-24T13:32:14;5.32;;;1.58;;
78774;SDS011;68119;43.398;3.676;2023-04-24T13:34:40;4.10;;;1.90;;
78774;SDS011;68119;43.398;3.676;2023-04-24T13:37:06;4.03;;;1.70;;
78774;SDS011;68119;43.398;3.676;2023-04-24T13:39:35;4.10;;;1.60;;
78774;SDS011;68119;43.398;3.676;2023-04-24T13:42:04;8.73;;;1.52;;
78774;SDS011;68119;43.398;3.676;2023-04-24T13:44:30;6.10;;;1.77;;
78774;SDS011;68119;43.398;3.676;2023-04-24T13:46:57;3.60;;;1.40;;
78774;SDS011;68119;43.398;3.676;2023-04-24T13:49:23;3.88;;;1.98;;
78774;SDS011;68119;43.398;3.676;2023-04-24T13:51:50;4.63;;;1.60;;
78774;SDS011;68119;43.398;3.676;2023-04-24T13:54:17;4.55;;;1.90;;
78774;SDS011;68119;43.398;3.676;2023-04-24T13:56:45;4.10;;;1.65;;
78774;SDS011;68119;43.398;3.676;2023-04-24T13:59:14;5.97;;;1.58;;
78774;SDS011;68119;43.398;3.676;2023-04-24T14:01:40;5.25;;;1.60;;
78774;SDS011;68119;43.398;3.676;2023-04-24T14:04:13;6.63;;;1.70;;
78774;SDS011;68119;43.398;3.676;2023-04-24T14:06:39;2.78;;;1.70;;
78774;SDS011;68119;43.398;3.676;2023-04-24T14:09:10;2.90;;;1.50;;
78774;SDS011;68119;43.398;3.676;2023-04-24T14:11:39;3.35;;;1.48;;
78774;SDS011;68119;43.398;3.676;2023-04-24T14:14:08;3.25;;;1.67;;
78774;SDS011;68119;43.398;3.676;2023-04-24T14:16:34;4.43;;;1.70;;
78774;SDS011;68119;43.398;3.676;2023-04-24T14:19:00;3.60;;;1.55;;
78774;SDS011;68119;43.398;3.676;2023-04-24T14:21:26;4.53;;;1.40;;
78774;SDS011;68119;43.398;3.676;2023-04-24T14:23:57;4.43;;;1.67;;
78774;SDS011;68119;43.398;3.676;2023-04-24T14:26:24;4.40;;;1.80;;
78774;SDS011;68119;43.398;3.676;2023-04-24T14:28:50;4.05;;;1.92;;
78774;SDS011;68119;43.398;3.676;2023-04-24T14:31:18;3.22;;;1.48;;
78774;SDS011;68119;43.398;3.676;2023-04-24T14:33:48;3.50;;;1.50;;
78774;SDS011;68119;43.398;3.676;2023-04-24T14:36:17;3.90;;;1.65;;
78774;SDS011;68119;43.398;3.676;2023-04-24T14:38:44;3.33;;;1.42;;
78774;SDS011;68119;43.398;3.676;2023-04-24T14:41:11;4.40;;;1.70;;
78774;SDS011;68119;43.398;3.676;2023-04-24T14:43:37;4.10;;;1.58;;
78774;SDS011;68119;43.398;3.676;2023-04-24T14:46:06;5.20;;;1.90;;
78774;SDS011;68119;43.398;3.676;2023-04-24T14:48:35;3.38;;;1.50;;
78774;SDS011;68119;43.398;3.676;2023-04-24T14:51:03;3.35;;;1.63;;
78774;SDS011;68119;43.398;3.676;2023-04-24T14:53:36;2.53;;;1.50;;
78774;SDS011;68119;43.398;3.676;2023-04-24T14:56:02;2.03;;;1.30;;
78774;SDS011;68119;43.398;3.676;2023-04-24T14:58:28;3.58;;;1.63;;
78774;SDS011;68119;43.398;3.676;2023-04-24T15:00:56;2.70;;;1.60;;
78774;SDS011;68119;43.398;3.676;2023-04-24T15:03:22;4.45;;;1.73;;
78774;SDS011;68119;43.398;3.676;2023-04-24T15:05:48;5.60;;;2.17;;
78774;SDS011;68119;43.398;3.676;2023-04-24T15:08:23;4.50;;;2.50;;